Главная страница
METAR-TAF:

METAR-TAF

Аэропорты :

Король Абдул-Азиз

Джидда, Саудовская Аравия

широта: 21-42N, долгота: 039-11E, высота над уровнем моря: 15 м

Текущие метеонаблюдения

Эта сводка был подготовлена 1 час и 9 минут назад, в 23:00 UTC
Штиль
Температура 31°C
Влажность 66%
Давление 1007 hPa
Видимость 10 км и более
Нет облачности ниже 1500 м, и нет кучево-дождевой облачности

METAR: OEJN 212300Z 00000KT CAVOK 31/24 Q1007 NOSIG

Время: 03:09 (00:09 UTC)

Прогноз

Эта сводка был подготовлена 1 час и 9 минут назад, в 23:00 UTC
Прогноз действительный с 22-го 00 UTC до 23-го 06 UTC
Ветер 3 Узел переменных направлений
Видимость 10 км и более
Нет облачности ниже 1500 м, и нет кучево-дождевой облачности
временами
С 22-го 04 UTC до 22-го 10 UTC
Видимость: 6000 м
изменения
С 22-го 06 UTC до 22-го 08 UTC
Ветер 12 Узел от западно-северо-западный

TAF: OEJN 212300Z 2200/2306 VRB03KT CAVOK TEMPO 2204/2210 6000 NSC BECMG 2206/2208 30012KT

Метеонаблюдения и прогнозы для более 4000 аэропортов (сводки METAR и TAF).

Имеющиеся станции представлены на карте желтыми и красными точками.

Чтобы увидеть название станции, наведите на нее мышь.

Затем щелкните, чтобы увидеть метеонаблюдения и метеопрогнозы.

Управление картой: чтобы увеличить масштаб, щелкните зеленые кнопки с черным крестиком; чтобы уменьшить масштаб, щелкните зеленую кнопку с тире; для просмотра соседних карт щелкайте зеленые стрелки.


METAR-TAF: